Time;durP1;ratioP1;P1;durP2;ratioP2;P2;SDS_P1;SDS_P2;PMS_P1;PMS_P2;Temp;Humidity;BMP_temperature;BMP_pressure;BME280_temperature;BME280_humidity;BME280_pressure;Samples;Min_cycle;Max_cycle;Signal;HPM_P1;HPM_P2
2023/12/19 00:01:15;;;;;;;6.97;4.23;;;;;;;1.09;nan;100933.09;4940578;28;20215;-79
2023/12/19 00:03:41;;;;;;;7.73;4.83;;;;;;;1.07;nan;100928.78;4944071;28;20205;-79
2023/12/19 00:06:07;;;;;;;6.57;5.70;;;;;;;1.06;nan;100934.84;4946873;28;20207;-79
2023/12/19 00:08:32;;;;;;;5.63;5.00;;;;;;;1.09;nan;100935.69;4950179;28;20459;-79
2023/12/19 00:10:57;;;;;;;5.30;4.80;;;;;;;1.13;nan;100925.31;4949662;28;20205;-80
2023/12/19 00:13:23;;;;;;;8.03;5.30;;;;;;;1.17;nan;100927.03;4948020;28;20249;-79
2023/12/19 00:15:48;;;;;;;6.20;5.13;;;;;;;1.20;nan;100922.69;4947668;28;20219;-79
2023/12/19 00:18:14;;;;;;;7.23;4.23;;;;;;;1.19;nan;100915.81;4928810;28;20192;-79
2023/12/19 00:20:39;;;;;;;5.30;4.30;;;;;;;1.19;nan;100921.00;4948647;28;20384;-79
2023/12/19 00:23:05;;;;;;;7.70;4.63;;;;;;;1.18;nan;100910.63;4947390;28;20207;-80
2023/12/19 00:25:31;;;;;;;9.20;4.90;;;;;;;1.18;nan;100911.47;4951349;28;20215;-80
2023/12/19 00:27:58;;;;;;;6.95;4.60;;;;;;;1.12;nan;100906.34;4949271;28;20809;-80
2023/12/19 00:30:25;;;;;;;9.00;5.60;;;;;;;1.09;nan;100909.81;4948498;28;20668;-80
2023/12/19 00:32:51;;;;;;;6.07;5.28;;;;;;;1.07;nan;100902.91;4950034;28;20255;-80
2023/12/19 00:35:16;;;;;;;5.20;4.27;;;;;;;1.05;nan;100902.94;4943213;28;20696;-79
2023/12/19 00:37:42;;;;;;;7.10;4.90;;;;;;;1.07;nan;100888.22;4947380;28;20449;-80
2023/12/19 00:40:08;;;;;;;5.90;5.30;;;;;;;1.07;nan;100880.47;4945705;28;20594;-80
2023/12/19 00:42:33;;;;;;;8.80;5.43;;;;;;;1.04;nan;100872.72;4949435;28;21323;-80
2023/12/19 00:44:58;;;;;;;6.63;4.73;;;;;;;1.06;nan;100859.81;4947774;28;20459;-79
2023/12/19 00:47:24;;;;;;;9.97;5.37;;;;;;;1.06;nan;100858.06;4945690;28;20208;-80
2023/12/19 00:49:50;;;;;;;5.20;3.97;;;;;;;1.06;nan;100867.56;4944947;28;20389;-80
2023/12/19 00:52:15;;;;;;;6.40;4.35;;;;;;;1.06;nan;100858.06;4945053;28;20219;-78
2023/12/19 00:54:41;;;;;;;8.00;4.47;;;;;;;1.07;nan;100849.44;4942102;28;20216;-79
2023/12/19 00:57:06;;;;;;;6.90;5.40;;;;;;;1.09;nan;100849.44;4944442;28;20271;-79
2023/12/19 00:59:31;;;;;;;5.60;4.40;;;;;;;1.08;nan;100848.56;4946668;28;20929;-79
2023/12/19 01:01:57;;;;;;;7.73;5.30;;;;;;;1.07;nan;100848.56;4945069;28;20197;-79
2023/12/19 01:04:22;;;;;;;9.60;5.00;;;;;;;1.06;nan;100850.31;4944309;28;20646;-79
2023/12/19 01:06:47;;;;;;;5.73;3.83;;;;;;;1.07;nan;100845.97;4946969;28;20954;-79
2023/12/19 01:09:13;;;;;;;6.80;3.77;;;;;;;1.09;nan;100845.09;4945813;28;20204;-79
2023/12/19 01:11:38;;;;;;;5.23;4.37;;;;;;;1.12;nan;100846.81;4944253;28;20196;-79
2023/12/19 01:14:05;;;;;;;5.87;4.33;;;;;;;1.06;nan;100842.53;4947291;28;20244;-80
2023/12/19 01:16:31;;;;;;;5.85;4.60;;;;;;;1.05;nan;100840.84;4944948;28;20204;-79
2023/12/19 01:18:56;;;;;;;8.57;4.83;;;;;;;1.05;nan;100833.06;4935112;28;20204;-79
2023/12/19 01:21:21;;;;;;;7.63;4.70;;;;;;;1.06;nan;100831.34;4945377;28;20212;-80
2023/12/19 01:23:47;;;;;;;5.00;3.27;;;;;;;1.07;nan;100843.41;4939601;28;20208;-79
2023/12/19 01:26:12;;;;;;;4.67;3.60;;;;;;;1.06;nan;100852.88;4941104;28;20701;-79
2023/12/19 01:28:39;;;;;;;4.37;3.93;;;;;;;1.06;nan;100858.06;4947358;28;20199;-80
2023/12/19 01:31:05;;;;;;;6.38;4.53;;;;;;;1.06;nan;100858.06;4949954;28;20651;-80
2023/12/19 01:33:30;;;;;;;6.47;4.20;;;;;;;1.05;nan;100848.59;4946235;28;20302;-79
2023/12/19 01:35:56;;;;;;;4.00;3.37;;;;;;;1.04;nan;100846.84;4948168;28;20212;-80
2023/12/19 01:38:21;;;;;;;3.73;3.33;;;;;;;1.04;nan;100846.84;4947651;28;20197;-79
2023/12/19 01:40:49;;;;;;;4.83;4.43;;;;;;;1.04;nan;100848.59;4949803;28;20216;-79
2023/12/19 01:43:20;;;;;;;7.47;4.95;;;;;;;1.03;nan;100852.91;4948229;28;20211;-80
2023/12/19 01:45:47;;;;;;;6.82;4.20;;;;;;;1.01;nan;100865.00;4957139;28;20654;-80
2023/12/19 01:48:13;;;;;;;6.53;2.83;;;;;;;0.91;nan;100871.06;4969202;28;20199;-80
2023/12/19 01:50:39;;;;;;;6.40;3.90;;;;;;;0.85;nan;100871.09;4966316;28;20288;-80
2023/12/19 01:53:05;;;;;;;7.20;4.20;;;;;;;0.76;nan;100859.06;4968635;28;20216;-80
2023/12/19 01:55:30;;;;;;;5.47;4.30;;;;;;;0.74;nan;100865.09;4967552;28;20203;-80
2023/12/19 01:57:56;;;;;;;5.00;3.60;;;;;;;0.68;nan;100858.22;4967182;28;21716;-80
2023/12/19 02:00:22;;;;;;;9.50;4.43;;;;;;;0.66;nan;100850.47;4969271;28;20214;-80
2023/12/19 02:02:50;;;;;;;11.32;5.85;;;;;;;0.65;nan;100848.75;4971375;28;20314;-80
2023/12/19 02:05:17;;;;;;;7.05;5.47;;;;;;;0.69;nan;100840.97;4971186;28;20211;-80
2023/12/19 02:07:43;;;;;;;5.30;3.45;;;;;;;0.72;nan;100846.13;4970030;28;20203;-80
2023/12/19 02:10:09;;;;;;;6.40;4.20;;;;;;;0.75;nan;100830.59;4969919;28;20313;-80
2023/12/19 02:12:35;;;;;;;5.88;3.78;;;;;;;0.76;nan;100833.19;4971111;28;20208;-80
2023/12/19 02:15:01;;;;;;;7.75;4.75;;;;;;;0.76;nan;100827.16;4970029;28;20195;-80
2023/12/19 02:17:27;;;;;;;7.32;4.15;;;;;;;0.73;nan;100829.75;4969845;28;20200;-80
2023/12/19 02:19:52;;;;;;;6.00;3.60;;;;;;;0.70;nan;100838.38;4973125;28;20204;-80
2023/12/19 02:22:18;;;;;;;8.00;3.17;;;;;;;0.70;nan;100848.72;4971908;28;20334;-81
2023/12/19 02:24:43;;;;;;;4.33;3.03;;;;;;;0.73;nan;100840.09;4971583;28;20199;-81
2023/12/19 02:27:10;;;;;;;8.13;3.87;;;;;;;0.74;nan;100824.56;4968438;28;20200;-80
2023/12/19 02:29:35;;;;;;;4.10;3.80;;;;;;;0.77;nan;100821.13;4971318;28;20200;-79
2023/12/19 02:32:01;;;;;;;4.00;3.60;;;;;;;0.78;nan;100828.00;4964912;28;20196;-79
2023/12/19 02:34:27;;;;;;;4.00;3.60;;;;;;;0.81;nan;100833.16;4965626;28;20243;-79
2023/12/19 02:36:52;;;;;;;4.27;2.87;;;;;;;0.81;nan;100822.81;4968673;28;21126;-79
2023/12/19 02:39:18;;;;;;;5.00;3.57;;;;;;;0.80;nan;100824.53;4969715;28;20203;-79
2023/12/19 02:41:44;;;;;;;5.57;3.27;;;;;;;0.78;nan;100822.81;4970709;28;20195;-79
2023/12/19 02:44:10;;;;;;;5.30;3.20;;;;;;;0.71;nan;100814.25;4969816;28;20206;-80
2023/12/19 02:46:35;;;;;;;4.07;3.60;;;;;;;0.69;nan;100815.13;4970323;28;20474;-80
2023/12/19 02:49:01;;;;;;;6.40;4.13;;;;;;;0.65;nan;100814.28;4967733;28;20211;-80
2023/12/19 02:51:26;;;;;;;4.87;4.00;;;;;;;0.61;nan;100822.91;4968966;28;20201;-80
2023/12/19 02:53:53;;;;;;;6.07;4.30;;;;;;;0.57;nan;100814.31;4967803;28;20326;-80
2023/12/19 02:56:19;;;;;;;7.22;3.38;;;;;;;0.53;nan;100809.13;4970850;28;20632;-80
2023/12/19 02:58:44;;;;;;;5.23;4.37;;;;;;;0.50;nan;100798.81;4972117;28;20200;-80
2023/12/19 03:01:09;;;;;;;6.43;3.63;;;;;;;0.46;nan;100795.38;4973582;28;21088;-79
2023/12/19 03:03:35;;;;;;;6.50;4.00;;;;;;;0.45;nan;100793.66;4972601;28;20590;-79
2023/12/19 03:06:00;;;;;;;5.57;3.03;;;;;;;0.46;nan;100786.75;4970452;28;20204;-78
2023/12/19 03:08:26;;;;;;;7.87;3.50;;;;;;;0.46;nan;100785.03;4969495;28;20242;-79
2023/12/19 03:10:52;;;;;;;4.17;2.57;;;;;;;0.44;nan;100792.78;4971213;28;20208;-79
2023/12/19 03:13:17;;;;;;;6.97;3.83;;;;;;;0.43;nan;100800.53;4967731;28;20570;-79
2023/12/19 03:15:43;;;;;;;6.47;4.67;;;;;;;0.38;nan;100797.13;4967668;28;20211;-78
2023/12/19 03:18:08;;;;;;;4.13;3.73;;;;;;;0.35;nan;100790.25;4967433;28;20200;-79
2023/12/19 03:20:33;;;;;;;10.47;3.80;;;;;;;0.35;nan;100798.00;4971195;28;20237;-79
2023/12/19 03:22:59;;;;;;;5.17;3.30;;;;;;;0.35;nan;100794.53;4971420;28;20184;-79
2023/12/19 03:25:25;;;;;;;8.40;4.60;;;;;;;0.36;nan;100791.97;4969867;28;20666;-80
2023/12/19 03:27:50;;;;;;;4.60;3.20;;;;;;;0.39;nan;100791.09;4972215;28;20515;-80
2023/12/19 03:30:16;;;;;;;3.20;2.73;;;;;;;0.39;nan;100775.56;4965503;28;20899;-80
2023/12/19 03:32:41;;;;;;;3.10;2.80;;;;;;;0.38;nan;100769.56;4967617;28;20229;-80
2023/12/19 03:35:07;;;;;;;4.63;3.70;;;;;;;0.37;nan;100766.97;4970194;28;20200;-80
2023/12/19 03:37:33;;;;;;;3.47;2.43;;;;;;;0.34;nan;100777.31;4973114;28;20202;-80
2023/12/19 03:39:58;;;;;;;5.67;3.40;;;;;;;0.30;nan;100767.84;4969912;28;20195;-80
2023/12/19 03:42:24;;;;;;;5.17;3.87;;;;;;;0.28;nan;100759.25;4969684;28;20204;-78
2023/12/19 03:44:49;;;;;;;6.87;4.30;;;;;;;0.28;nan;100756.66;4966319;28;20797;-81
2023/12/19 03:47:15;;;;;;;3.63;2.60;;;;;;;0.28;nan;100754.09;4969658;28;20203;-81
2023/12/19 03:49:40;;;;;;;7.00;3.40;;;;;;;0.30;nan;100752.34;4966437;28;20208;-77
2023/12/19 03:52:09;;;;;;;3.40;3.00;;;;;;;0.30;nan;100753.22;4968473;28;20211;-78
2023/12/19 03:54:34;;;;;;;3.63;3.03;;;;;;;0.32;nan;100748.03;4968619;28;20207;-77
2023/12/19 03:56:59;;;;;;;3.63;2.60;;;;;;;0.29;nan;100753.22;4967963;28;20234;-78
2023/12/19 03:59:25;;;;;;;3.37;2.97;;;;;;;0.25;nan;100751.50;4969114;28;20716;-78
2023/12/19 04:01:51;;;;;;;6.43;3.50;;;;;;;0.24;nan;100748.03;4965875;28;20191;-77
2023/12/19 04:04:17;;;;;;;7.25;3.33;;;;;;;0.25;nan;100747.19;4959978;28;21210;-77
2023/12/19 04:06:43;;;;;;;5.37;3.20;;;;;;;0.22;nan;100745.47;4960776;28;20208;-77
2023/12/19 04:09:12;;;;;;;6.32;4.50;;;;;;;0.25;nan;100743.75;4963929;28;20436;-76
2023/12/19 04:11:38;;;;;;;5.68;3.80;;;;;;;0.24;nan;100735.13;4964251;28;20196;-76
2023/12/19 04:14:05;;;;;;;6.37;3.57;;;;;;;0.20;nan;100742.03;4967265;28;20235;-77
2023/12/19 04:16:31;;;;;;;5.78;3.05;;;;;;;0.17;nan;100742.06;4959985;28;20266;-76
2023/12/19 04:18:57;;;;;;;3.07;2.67;;;;;;;0.13;nan;100742.91;4962536;28;20203;-77
2023/12/19 04:21:22;;;;;;;6.00;3.77;;;;;;;0.12;nan;100736.03;4962970;28;20930;-77
2023/12/19 04:23:48;;;;;;;5.30;2.73;;;;;;;0.12;nan;100743.78;4966030;28;20196;-77
2023/12/19 04:26:20;;;;;;;6.40;3.47;;;;;;;0.13;nan;100744.63;4965316;28;20200;-77
2023/12/19 04:28:49;;;;;;;7.25;3.30;;;;;;;0.13;nan;100736.88;4964781;28;20207;-76
2023/12/19 04:31:14;;;;;;;5.50;2.83;;;;;;;0.13;nan;100742.06;4969681;28;20188;-77
2023/12/19 04:33:40;;;;;;;4.00;3.47;;;;;;;0.10;nan;100734.31;4962166;28;20862;-77
2023/12/19 04:36:12;;;;;;;3.07;2.70;;;;;;;0.08;nan;100736.03;4963807;28;20242;-77
2023/12/19 04:38:39;;;;;;;4.45;3.78;;;;;;;0.11;nan;100738.59;4965831;28;20458;-77
2023/12/19 04:41:04;;;;;;;4.25;2.67;;;;;;;0.10;nan;100742.91;4964369;28;20195;-77
2023/12/19 04:43:30;;;;;;;4.50;3.60;;;;;;;0.10;nan;100745.50;4961570;28;20596;-77
2023/12/19 04:45:56;;;;;;;5.90;2.87;;;;;;;0.09;nan;100737.78;4965186;28;20239;-77
2023/12/19 04:48:21;;;;;;;3.73;2.80;;;;;;;0.05;nan;100738.63;4963579;28;20287;-77
2023/12/19 04:50:47;;;;;;;4.17;3.60;;;;;;;0.01;nan;100742.09;4966082;28;20867;-78
2023/12/19 04:53:12;;;;;;;7.93;6.83;;;;;;;-0.01;nan;100739.50;4968630;28;20208;-78
2023/12/19 04:55:37;;;;;;;11.03;6.80;;;;;;;-0.02;nan;100733.50;4968803;28;20207;-77
2023/12/19 04:58:03;;;;;;;5.30;3.97;;;;;;;-0.02;nan;100723.16;4967206;28;20207;-77
2023/12/19 05:00:29;;;;;;;4.90;4.38;;;;;;;-0.03;nan;100728.31;4966615;28;20203;-77
2023/12/19 05:02:54;;;;;;;3.73;3.13;;;;;;;-0.06;nan;100718.84;4970674;28;20254;-77
2023/12/19 05:05:20;;;;;;;7.87;3.43;;;;;;;-0.06;nan;100730.91;4964303;28;20228;-77
2023/12/19 05:07:46;;;;;;;7.73;3.40;;;;;;;-0.10;nan;100724.91;4965392;28;20195;-78
2023/12/19 05:10:11;;;;;;;4.30;2.87;;;;;;;-0.12;nan;100711.13;4968163;28;21062;-77
2023/12/19 05:12:37;;;;;;;8.77;3.77;;;;;;;-0.11;nan;100715.44;4969140;28;20228;-77
2023/12/19 05:15:04;;;;;;;9.25;4.47;;;;;;;-0.12;nan;100712.84;4961960;28;20208;-78
2023/12/19 05:17:29;;;;;;;6.10;4.07;;;;;;;-0.11;nan;100702.53;4959447;28;20204;-77
2023/12/19 05:19:55;;;;;;;5.60;2.80;;;;;;;-0.09;nan;100705.94;4961938;28;20694;-77
2023/12/19 05:22:20;;;;;;;4.13;2.60;;;;;;;-0.09;nan;100708.53;4960700;28;20212;-76
2023/12/19 05:24:46;;;;;;;2.37;2.17;;;;;;;-0.07;nan;100708.53;4960253;28;20196;-77
2023/12/19 05:27:11;;;;;;;3.77;2.30;;;;;;;-0.05;nan;100702.50;4962964;28;20238;-77
2023/12/19 05:29:37;;;;;;;3.50;3.17;;;;;;;-0.04;nan;100709.38;4974089;28;20238;-77
2023/12/19 05:32:04;;;;;;;3.07;2.77;;;;;;;-0.02;nan;100705.06;4956527;28;20552;-77
2023/12/19 05:34:29;;;;;;;3.50;2.75;;;;;;;0.02;nan;100705.06;4967329;28;20211;-77
2023/12/19 05:36:55;;;;;;;2.43;2.20;;;;;;;0.02;nan;100693.00;4973958;28;20787;-77
2023/12/19 05:39:20;;;;;;;4.13;3.27;;;;;;;0.00;nan;100692.19;4966667;28;20724;-77
2023/12/19 05:41:45;;;;;;;11.90;6.80;;;;;;;0.02;nan;100693.00;4975658;28;20326;-77
2023/12/19 05:44:12;;;;;;;26.87;15.73;;;;;;;0.02;nan;100695.59;4972402;28;20654;-77
2023/12/19 05:46:38;;;;;;;10.55;7.32;;;;;;;0.02;nan;100693.00;4972719;28;20880;-77
2023/12/19 05:49:08;;;;;;;20.10;11.02;;;;;;;0.03;nan;100694.75;4972969;28;20239;-77
2023/12/19 05:51:37;;;;;;;12.77;8.20;;;;;;;0.05;nan;100703.31;4977491;28;20211;-77
2023/12/19 05:54:03;;;;;;;7.93;4.88;;;;;;;0.02;nan;100687.00;4977567;28;20426;-77
2023/12/19 05:56:28;;;;;;;6.20;5.57;;;;;;;0.02;nan;100682.66;4975838;28;20266;-78
2023/12/19 05:58:53;;;;;;;5.13;4.37;;;;;;;0.02;nan;100681.81;4976128;28;20198;-78
2023/12/19 06:01:19;;;;;;;5.63;4.83;;;;;;;0.04;nan;100696.44;4974498;28;20572;-77
2023/12/19 06:03:44;;;;;;;7.30;5.93;;;;;;;0.04;nan;100701.63;4974334;28;20180;-77
2023/12/19 06:06:13;;;;;;;9.70;8.33;;;;;;;0.04;nan;100709.38;4978388;28;20656;-78
2023/12/19 06:08:39;;;;;;;10.55;8.55;;;;;;;0.03;nan;100705.06;4971559;28;20436;-78
2023/12/19 06:11:06;;;;;;;5.50;4.40;;;;;;;0.00;nan;100697.34;4973892;28;20674;-78
2023/12/19 06:13:31;;;;;;;5.00;4.03;;;;;;;0.01;nan;100693.88;4972794;28;20226;-78
2023/12/19 06:15:56;;;;;;;5.33;4.80;;;;;;;0.02;nan;100685.25;4973155;28;20215;-78
2023/12/19 06:18:22;;;;;;;5.27;4.43;;;;;;;0.01;nan;100680.97;4974455;28;20339;-78
2023/12/19 06:20:47;;;;;;;6.83;4.10;;;;;;;-0.03;nan;100669.78;4973930;28;23149;-78
2023/12/19 06:23:13;;;;;;;11.80;5.67;;;;;;;-0.03;nan;100661.16;4975769;28;20200;-81
2023/12/19 06:25:38;;;;;;;5.00;3.80;;;;;;;-0.05;nan;100657.75;4976265;28;20208;-80
2023/12/19 06:28:05;;;;;;;4.70;3.55;;;;;;;-0.08;nan;100665.47;4957985;28;20548;-81
2023/12/19 06:30:31;;;;;;;4.05;3.30;;;;;;;-0.11;nan;100666.38;4972087;28;20661;-80
2023/12/19 06:32:56;;;;;;;2.77;2.57;;;;;;;-0.13;nan;100677.56;4972646;28;20210;-80
2023/12/19 06:35:22;;;;;;;6.90;3.47;;;;;;;-0.14;nan;100681.84;4974841;28;20211;-80
2023/12/19 06:37:47;;;;;;;3.25;2.95;;;;;;;-0.15;nan;100693.06;4973916;28;20218;-81
2023/12/19 06:40:13;;;;;;;6.17;2.43;;;;;;;-0.17;nan;100701.66;4969694;28;20208;-81
2023/12/19 06:42:39;;;;;;;3.20;2.90;;;;;;;-0.18;nan;100697.38;4972107;28;20204;-81
2023/12/19 06:45:05;;;;;;;7.03;3.47;;;;;;;-0.18;nan;100702.53;4974497;28;20306;-81
2023/12/19 06:47:30;;;;;;;3.38;2.80;;;;;;;-0.18;nan;100697.38;4973835;28;20204;-81
2023/12/19 06:49:55;;;;;;;3.53;3.23;;;;;;;-0.19;nan;100709.41;4978398;28;20231;-81
2023/12/19 06:52:21;;;;;;;3.43;2.30;;;;;;;-0.18;nan;100697.38;4974041;28;20668;-81
2023/12/19 06:54:46;;;;;;;3.03;2.73;;;;;;;-0.17;nan;100696.50;4973105;28;20220;-81
2023/12/19 06:57:12;;;;;;;8.03;3.13;;;;;;;-0.21;nan;100695.66;4973316;28;20668;-81
2023/12/19 06:59:38;;;;;;;3.30;2.77;;;;;;;-0.23;nan;100694.81;4974069;28;20200;-81
2023/12/19 07:02:04;;;;;;;4.40;2.87;;;;;;;-0.27;nan;100699.13;4973426;28;20454;-81
2023/12/19 07:04:29;;;;;;;4.43;3.57;;;;;;;-0.29;nan;100706.00;4975029;28;20204;-81
2023/12/19 07:06:54;;;;;;;15.40;5.80;;;;;;;-0.31;nan;100702.56;4974435;28;20215;-81
2023/12/19 07:09:20;;;;;;;13.53;7.90;;;;;;;-0.32;nan;100711.19;4972904;28;20212;-81
2023/12/19 07:11:45;;;;;;;12.13;6.00;;;;;;;-0.31;nan;100728.38;4972348;28;20282;-81
2023/12/19 07:14:11;;;;;;;4.30;2.93;;;;;;;-0.32;nan;100728.38;4972092;28;20212;-81
2023/12/19 07:16:36;;;;;;;5.07;3.20;;;;;;;-0.33;nan;100721.50;4970966;28;21424;-81
2023/12/19 07:19:03;;;;;;;4.70;2.93;;;;;;;-0.34;nan;100723.22;4973845;28;20212;-81
2023/12/19 07:21:31;;;;;;;2.90;2.63;;;;;;;-0.33;nan;100719.75;4974391;28;20228;-80
2023/12/19 07:23:58;;;;;;;6.85;4.07;;;;;;;-0.34;nan;100701.72;4969606;28;20191;-81
2023/12/19 07:26:28;;;;;;;3.35;2.58;;;;;;;-0.36;nan;100700.84;4974683;28;20993;-81
2023/12/19 07:28:54;;;;;;;4.55;3.75;;;;;;;-0.38;nan;100692.22;4973476;28;20273;-80
2023/12/19 07:31:25;;;;;;;5.60;3.13;;;;;;;-0.34;nan;100687.06;4976291;28;20180;-80
2023/12/19 07:34:03;;;;;;;4.78;3.88;;;;;;;-0.30;nan;100688.81;4972640;28;20212;-81
2023/12/19 07:36:30;;;;;;;9.95;3.20;;;;;;;-0.29;nan;100682.75;4972632;28;20211;-81
2023/12/19 07:38:55;;;;;;;4.80;4.00;;;;;;;-0.22;nan;100673.28;4971632;28;20527;-81
2023/12/19 07:41:22;;;;;;;6.13;3.20;;;;;;;-0.13;nan;100690.50;4956857;28;20208;-81
2023/12/19 07:43:49;;;;;;;5.32;3.45;;;;;;;-0.04;nan;100693.03;4969026;28;20219;-81
2023/12/19 07:46:15;;;;;;;5.15;3.20;;;;;;;0.05;nan;100693.00;4974041;28;20223;-80
2023/12/19 07:48:41;;;;;;;4.77;3.17;;;;;;;0.16;nan;100690.38;4971408;28;20382;-80
2023/12/19 07:51:08;;;;;;;4.40;3.95;;;;;;;0.22;nan;100693.81;4966905;28;20998;-80
2023/12/19 07:53:33;;;;;;;4.72;3.67;;;;;;;0.33;nan;100678.25;4967148;28;20218;-81
2023/12/19 07:56:04;;;;;;;5.17;4.67;;;;;;;0.44;nan;100680.78;4965397;28;20254;-80
2023/12/19 07:58:30;;;;;;;4.25;3.08;;;;;;;0.49;nan;100680.75;4967312;28;20507;-81
2023/12/19 08:00:56;;;;;;;4.57;3.40;;;;;;;0.51;nan;100682.47;4968356;28;20215;-80
2023/12/19 08:03:25;;;;;;;6.60;3.30;;;;;;;0.47;nan;100680.78;4967443;28;20196;-81
2023/12/19 08:05:56;;;;;;;4.57;3.63;;;;;;;0.42;nan;100682.53;4967430;28;20870;-80
2023/12/19 08:08:25;;;;;;;6.80;3.95;;;;;;;0.38;nan;100681.69;4967147;28;20983;-81
2023/12/19 08:10:51;;;;;;;4.63;3.13;;;;;;;0.32;nan;100693.75;4968416;28;20204;-80
2023/12/19 08:13:20;;;;;;;2.95;2.35;;;;;;;0.28;nan;100700.66;4968741;28;20640;-80
2023/12/19 08:15:48;;;;;;;4.35;3.05;;;;;;;0.26;nan;100694.66;4962851;28;20561;-80
2023/12/19 08:18:14;;;;;;;4.40;2.72;;;;;;;0.26;nan;100693.78;4962535;28;20176;-80
2023/12/19 08:20:40;;;;;;;3.37;2.30;;;;;;;0.21;nan;100694.66;4966301;28;20631;-80
2023/12/19 08:23:07;;;;;;;4.70;3.67;;;;;;;0.22;nan;100688.63;4960620;28;21523;-80
2023/12/19 08:25:33;;;;;;;3.30;3.00;;;;;;;0.22;nan;100690.38;4966124;28;20258;-80
2023/12/19 08:27:58;;;;;;;16.90;10.37;;;;;;;0.29;nan;100670.50;4962457;28;20200;-80
2023/12/19 08:30:27;;;;;;;8.20;5.23;;;;;;;0.38;nan;100666.19;4965103;28;21248;-80
2023/12/19 08:32:54;;;;;;;8.43;6.45;;;;;;;0.43;nan;100669.59;4948266;28;20545;-80
2023/12/19 08:35:19;;;;;;;8.57;5.55;;;;;;;0.53;nan;100679.88;4965776;28;20227;-80
2023/12/19 08:37:45;;;;;;;14.10;6.53;;;;;;;0.61;nan;100678.97;4965531;28;20278;-80
2023/12/19 08:40:11;;;;;;;7.65;5.82;;;;;;;0.71;nan;100682.38;4964794;28;20215;-79
2023/12/19 08:42:36;;;;;;;6.87;4.77;;;;;;;0.80;nan;100684.88;4962767;28;20289;-79
2023/12/19 08:45:02;;;;;;;9.47;5.40;;;;;;;0.89;nan;100678.78;4960357;28;20372;-79
2023/12/19 08:47:28;;;;;;;11.60;5.25;;;;;;;0.97;nan;100656.31;4965048;28;20716;-79
2023/12/19 08:49:53;;;;;;;4.80;4.03;;;;;;;1.08;nan;100664.88;4965947;28;20190;-79
2023/12/19 08:52:21;;;;;;;8.67;5.53;;;;;;;1.20;nan;100668.22;4963823;28;20242;-79
2023/12/19 08:54:46;;;;;;;8.73;6.63;;;;;;;1.67;nan;100672.09;4959587;28;20266;-80
2023/12/19 08:57:13;;;;;;;6.27;5.40;;;;;;;2.68;nan;100672.63;4967253;28;20211;-79
2023/12/19 08:59:39;;;;;;;5.80;4.55;;;;;;;3.89;nan;100654.97;4965863;28;20349;-79
2023/12/19 09:02:05;;;;;;;7.37;5.20;;;;;;;5.28;nan;100640.63;4967740;28;20199;-79
2023/12/19 09:04:30;;;;;;;8.70;6.32;;;;;;;6.78;nan;100619.88;4971158;28;20282;-80
2023/12/19 09:06:56;;;;;;;9.07;7.80;;;;;;;;;;4968980;28;20440;-80
2023/12/19 09:09:22;;;;;;;11.80;7.20;;;;;;;9.20;nan;100602.28;4954005;28;21076;-80
2023/12/19 09:11:47;;;;;;;10.10;6.87;;;;;;;9.33;nan;100613.09;4972031;28;20199;-80
2023/12/19 09:14:14;;;;;;;8.20;7.40;;;;;;;9.14;nan;100623.50;4969102;28;20524;-80
2023/12/19 09:16:39;;;;;;;7.53;6.03;;;;;;;9.08;nan;100630.69;4970569;28;20613;-80
2023/12/19 09:19:05;;;;;;;7.87;6.77;;;;;;;8.80;nan;100635.34;4970251;28;20207;-80
2023/12/19 09:21:31;;;;;;;7.80;7.00;;;;;;;8.25;nan;100632.22;4968690;28;20206;-80
2023/12/19 09:23:56;;;;;;;8.55;7.13;;;;;;;7.68;nan;100622.06;4951894;28;20237;-80
2023/12/19 09:26:22;;;;;;;12.93;7.67;;;;;;;7.34;nan;100619.75;4969033;28;20210;-80
2023/12/19 09:28:47;;;;;;;8.73;6.53;;;;;;;7.17;nan;100620.31;4972148;28;20310;-80
2023/12/19 09:31:13;;;;;;;14.40;9.70;;;;;;;6.82;nan;100606.66;4970626;28;20202;-80
2023/12/19 09:33:39;;;;;;;13.73;9.17;;;;;;;6.36;nan;100615.06;4971419;28;20711;-80
2023/12/19 09:36:08;;;;;;;10.00;7.28;;;;;;;6.38;nan;100610.66;4966389;28;20219;-80
2023/12/19 09:38:34;;;;;;;7.93;5.18;;;;;;;6.74;nan;100586.94;4968087;28;20195;-80
2023/12/19 09:41:01;;;;;;;8.33;5.30;;;;;;;6.93;nan;100584.56;4970494;28;20271;-80
2023/12/19 09:43:31;;;;;;;7.30;5.50;;;;;;;6.84;nan;100577.91;4967093;28;20490;-80
2023/12/19 09:46:00;;;;;;;5.53;4.50;;;;;;;6.76;nan;100572.91;4964130;28;20223;-80
2023/12/19 09:48:31;;;;;;;9.35;5.43;;;;;;;6.81;nan;100572.78;4965591;28;20295;-79
2023/12/19 09:51:01;;;;;;;7.18;4.80;;;;;;;7.53;nan;100578.13;4967029;28;20200;-77
2023/12/19 09:53:30;;;;;;;10.85;4.35;;;;;;;8.76;nan;100586.63;4965595;28;20312;-79
2023/12/19 09:55:56;;;;;;;5.30;3.85;;;;;;;9.83;nan;100574.19;4964020;28;20216;-79
2023/12/19 09:58:23;;;;;;;8.20;4.77;;;;;;;10.52;nan;100557.00;4966744;28;20508;-79
2023/12/19 10:00:48;;;;;;;11.00;5.03;;;;;;;11.01;nan;100551.94;4965496;28;21065;-79
2023/12/19 10:03:14;;;;;;;5.73;4.90;;;;;;;11.55;nan;100539.50;4964625;28;20200;-79
2023/12/19 10:05:43;;;;;;;6.53;4.53;;;;;;;11.97;nan;100529.44;4965331;28;20426;-77
2023/12/19 10:08:08;;;;;;;5.25;3.97;;;;;;;12.49;nan;100530.00;4961343;28;20642;-77
2023/12/19 10:10:54;;;;;;;5.03;3.60;;;;;;;12.99;nan;100510.41;4967133;28;20740;-79
2023/12/19 10:13:30;;;;;;;5.97;3.35;;;;;;;;;;4964915;28;20312;-80
2023/12/19 10:16:02;;;;;;;8.00;4.57;;;;;;;;;;4962002;28;20227;-79
2023/12/19 10:18:27;;;;;;;5.25;4.60;;;;;;;;;;4964881;28;20200;-80
2023/12/19 10:21:10;;;;;;;13.20;3.57;;;;;;;11.37;nan;100556.25;4964597;28;20744;-79
2023/12/19 10:23:42;;;;;;;6.95;5.00;;;;;;;10.77;nan;100557.50;4965631;28;20195;-78
2023/12/19 10:26:08;;;;;;;7.13;4.63;;;;;;;10.31;nan;100557.09;4965140;28;20211;-78
2023/12/19 10:28:35;;;;;;;7.22;4.90;;;;;;;9.98;nan;100556.88;4963520;28;20192;-79
2023/12/19 10:31:15;;;;;;;7.18;4.45;;;;;;;9.68;nan;100543.38;4964936;28;20236;-77
2023/12/19 10:33:45;;;;;;;5.38;3.17;;;;;;;9.40;nan;100526.25;4963364;28;20564;-78
2023/12/19 10:36:28;;;;;;;5.80;4.38;;;;;;;9.15;nan;100530.84;4964923;28;20230;-77
2023/12/19 10:38:55;;;;;;;3.53;3.22;;;;;;;8.92;nan;100523.97;4962475;28;20532;-77
2023/12/19 10:41:24;;;;;;;5.40;3.20;;;;;;;8.72;nan;100523.03;4966329;28;20214;-80
2023/12/19 10:43:51;;;;;;;4.10;3.08;;;;;;;8.62;nan;100530.41;4967052;28;20211;-79
2023/12/19 10:46:18;;;;;;;4.43;3.47;;;;;;;8.56;nan;100537.63;4966892;28;20461;-79
2023/12/19 10:48:44;;;;;;;5.32;4.35;;;;;;;8.52;nan;100539.53;4963549;28;20203;-78
2023/12/19 10:51:14;;;;;;;5.00;3.97;;;;;;;8.48;nan;100530.13;4964876;28;20202;-77
2023/12/19 10:53:48;;;;;;;4.43;4.03;;;;;;;8.40;nan;100527.81;4965558;28;20470;-77
2023/12/19 10:56:18;;;;;;;13.55;5.50;;;;;;;8.34;nan;100519.28;4965308;28;20270;-79
2023/12/19 10:58:48;;;;;;;5.55;5.05;;;;;;;8.20;nan;100515.47;4965008;28;21084;-78
2023/12/19 11:01:16;;;;;;;9.15;7.30;;;;;;;8.10;nan;100511.53;4963653;28;20208;-79
2023/12/19 11:03:50;;;;;;;5.05;4.55;;;;;;;8.08;nan;100502.03;4966747;28;20223;-78
2023/12/19 11:06:17;;;;;;;5.68;3.70;;;;;;;8.06;nan;100488.97;4963511;28;20581;-77
2023/12/19 11:08:47;;;;;;;5.88;4.07;;;;;;;8.10;nan;100482.75;4961158;28;20504;-79
2023/12/19 11:11:29;;;;;;;7.22;4.85;;;;;;;8.17;nan;100480.72;4965628;28;20242;-78
2023/12/19 11:13:56;;;;;;;5.70;3.22;;;;;;;8.24;nan;100478.72;4963946;28;20216;-80
2023/12/19 11:16:26;;;;;;;6.03;3.63;;;;;;;8.28;nan;100467.19;4963305;28;20488;-79
2023/12/19 11:18:58;;;;;;;3.15;2.35;;;;;;;8.32;nan;100460.94;4963056;28;20452;-79
2023/12/19 11:21:41;;;;;;;3.10;2.60;;;;;;;8.34;nan;100461.72;4961567;28;20238;-77
2023/12/19 11:24:19;;;;;;;3.80;3.15;;;;;;;8.32;nan;100458.31;4964017;28;20194;-79
2023/12/19 11:26:59;;;;;;;4.72;3.45;;;;;;;8.33;nan;100460.00;4959928;28;20557;-79
2023/12/19 11:29:50;;;;;;;5.88;4.05;;;;;;;8.33;nan;100444.31;4965129;28;20603;-78
2023/12/19 11:32:28;;;;;;;4.05;2.78;;;;;;;8.34;nan;100430.28;4961491;28;20208;-77
2023/12/19 11:34:54;;;;;;;4.25;3.33;;;;;;;8.33;nan;100421.59;4963819;28;20288;-79
2023/12/19 11:37:21;;;;;;;3.42;2.60;;;;;;;8.29;nan;100411.31;4959580;28;20192;-79
2023/12/19 11:39:46;;;;;;;4.00;3.03;;;;;;;8.28;nan;100400.00;4944674;28;20226;-77
2023/12/19 11:42:42;;;;;;;4.00;1.90;;;;;;;8.30;nan;100402.56;4959589;28;20837;-80
2023/12/19 11:45:17;;;;;;;3.13;2.83;;;;;;;8.31;nan;100399.00;4960310;28;20318;-80
2023/12/19 11:47:43;;;;;;;4.63;2.65;;;;;;;8.41;nan;100410.84;4962605;28;20698;-80